To NAV CANADA Home Page Login to a new session Search on AWWS site Feedback and Comments Disclaimer Vers la page française équivalente Tips FAQ What's new on the site To the Forecasts and Observations / NOTAM section To "File a Flight Plan" website Publications and other links Update of the User's profile FIC Telephone Numbers My Weather Data Folder Route Weather Data Regional Weather Data Local Weather Data To the Forecasts and Observations / NOTAM section
Request Generated 09/01/2015 at 05:54:46 UTC . Weather information available at that time is displayed.

METAR/TAF

BURWASH/YT    

METAR CYDB 010500Z AUTO 31014G24KT 9SM -RA FEW030 BKN060 BKN074
OVC090 02/M00 A2969 RMK SLP092=
SPECI CYDB 010457Z AUTO 30015G24KT 9SM -RA FEW038 BKN060 OVC073
02/M00 A2970 RMK SLP093=
SPECI CYDB 010425Z AUTO 31012G20KT 9SM OVC070 02/M00 A2969 RMK
SLP090=
METAR CYDB 010400Z AUTO 31011G20KT 9SM -RA SCT046 OVC060 02/M00 A2968
RMK SLP087=
SPECI CYDB 010352Z AUTO 31013G22KT 9SM -RA BKN046 OVC070 02/M00 A2967
RMK SLP085=
SPECI CYDB 010322Z AUTO 30017G23KT 9SM FEW047 BKN070 OVC084 03/M00
A2965 RMK SLP079=
METAR CYDB 010300Z AUTO 30018G26KT 9SM -RA OVC060 02/M00 A2965 RMK
SLP077=

TAF CYDB 010539Z 0106/0118 31012G22KT 3SM -SHRASN BR BKN030 TEMPO
0106/0107 P6SM -SHRA SCT030 BKN050
FM010700 30020G30KT 1SM -SN OVC010 TEMPO 0107/0118 3SM -SN OVC020
RMK FCST BASED ON AUTO OBS. NXT FCST BY 011200Z=
Your time UTC time
Weather data provided by Environment Canada and NAV CANADA